sensor_id;sensor_type;location;lat;lon;timestamp;P1;durP1;ratioP1;P2;durP2;ratioP2
2598;SDS011;1309;48.810;8.954;2023-01-28T00:01:40;6.73;;;4.40;;
2598;SDS011;1309;48.810;8.954;2023-01-28T00:04:08;9.40;;;4.73;;
2598;SDS011;1309;48.810;8.954;2023-01-28T00:06:39;6.33;;;3.87;;
2598;SDS011;1309;48.810;8.954;2023-01-28T00:09:10;7.77;;;4.17;;
2598;SDS011;1309;48.810;8.954;2023-01-28T00:11:41;8.33;;;4.60;;
2598;SDS011;1309;48.810;8.954;2023-01-28T00:14:10;5.20;;;3.07;;
2598;SDS011;1309;48.810;8.954;2023-01-28T00:16:40;11.43;;;4.83;;
2598;SDS011;1309;48.810;8.954;2023-01-28T00:19:08;7.40;;;4.30;;
2598;SDS011;1309;48.810;8.954;2023-01-28T00:21:40;9.10;;;4.53;;
2598;SDS011;1309;48.810;8.954;2023-01-28T00:24:08;7.80;;;4.50;;
2598;SDS011;1309;48.810;8.954;2023-01-28T00:26:42;7.80;;;4.73;;
2598;SDS011;1309;48.810;8.954;2023-01-28T00:29:12;9.13;;;4.00;;
2598;SDS011;1309;48.810;8.954;2023-01-28T00:31:44;6.67;;;3.77;;
2598;SDS011;1309;48.810;8.954;2023-01-28T00:34:13;7.33;;;4.00;;
2598;SDS011;1309;48.810;8.954;2023-01-28T00:36:44;8.33;;;5.67;;
2598;SDS011;1309;48.810;8.954;2023-01-28T00:39:23;5.23;;;4.00;;
2598;SDS011;1309;48.810;8.954;2023-01-28T00:41:53;6.30;;;4.20;;
2598;SDS011;1309;48.810;8.954;2023-01-28T00:44:26;6.23;;;4.20;;
2598;SDS011;1309;48.810;8.954;2023-01-28T00:46:59;6.30;;;3.67;;
2598;SDS011;1309;48.810;8.954;2023-01-28T00:49:34;10.90;;;4.87;;
2598;SDS011;1309;48.810;8.954;2023-01-28T00:52:02;6.87;;;3.73;;
2598;SDS011;1309;48.810;8.954;2023-01-28T00:54:32;6.50;;;3.87;;
2598;SDS011;1309;48.810;8.954;2023-01-28T00:57:01;6.20;;;2.87;;
2598;SDS011;1309;48.810;8.954;2023-01-28T00:59:33;9.17;;;4.53;;
2598;SDS011;1309;48.810;8.954;2023-01-28T01:02:02;6.57;;;3.10;;
2598;SDS011;1309;48.810;8.954;2023-01-28T01:04:38;8.17;;;4.27;;
2598;SDS011;1309;48.810;8.954;2023-01-28T01:07:21;7.80;;;3.73;;
2598;SDS011;1309;48.810;8.954;2023-01-28T01:09:58;8.90;;;4.40;;
2598;SDS011;1309;48.810;8.954;2023-01-28T01:12:29;8.00;;;3.90;;
2598;SDS011;1309;48.810;8.954;2023-01-28T01:14:56;7.60;;;3.00;;
2598;SDS011;1309;48.810;8.954;2023-01-28T01:17:35;5.23;;;2.90;;
2598;SDS011;1309;48.810;8.954;2023-01-28T01:20:04;5.80;;;2.93;;
2598;SDS011;1309;48.810;8.954;2023-01-28T01:22:33;7.23;;;3.67;;
2598;SDS011;1309;48.810;8.954;2023-01-28T01:25:04;5.87;;;3.57;;
2598;SDS011;1309;48.810;8.954;2023-01-28T01:27:34;4.83;;;3.20;;
2598;SDS011;1309;48.810;8.954;2023-01-28T01:30:04;8.00;;;2.70;;
2598;SDS011;1309;48.810;8.954;2023-01-28T01:32:39;6.80;;;3.30;;
2598;SDS011;1309;48.810;8.954;2023-01-28T01:35:11;6.40;;;3.93;;
2598;SDS011;1309;48.810;8.954;2023-01-28T01:37:42;5.70;;;4.20;;
2598;SDS011;1309;48.810;8.954;2023-01-28T01:40:13;6.80;;;3.93;;
2598;SDS011;1309;48.810;8.954;2023-01-28T01:42:41;9.60;;;4.13;;
2598;SDS011;1309;48.810;8.954;2023-01-28T01:45:10;5.23;;;3.10;;
2598;SDS011;1309;48.810;8.954;2023-01-28T01:47:43;6.93;;;3.30;;
2598;SDS011;1309;48.810;8.954;2023-01-28T01:50:15;7.23;;;4.40;;
2598;SDS011;1309;48.810;8.954;2023-01-28T01:52:48;6.93;;;3.20;;
2598;SDS011;1309;48.810;8.954;2023-01-28T01:55:20;9.77;;;3.60;;
2598;SDS011;1309;48.810;8.954;2023-01-28T01:57:50;5.30;;;3.37;;
2598;SDS011;1309;48.810;8.954;2023-01-28T02:02:50;3.73;;;2.70;;
2598;SDS011;1309;48.810;8.954;2023-01-28T02:05:20;7.40;;;3.70;;
2598;SDS011;1309;48.810;8.954;2023-01-28T02:07:49;7.40;;;3.80;;
2598;SDS011;1309;48.810;8.954;2023-01-28T02:10:21;5.23;;;3.20;;
2598;SDS011;1309;48.810;8.954;2023-01-28T02:12:54;4.53;;;3.07;;
2598;SDS011;1309;48.810;8.954;2023-01-28T02:15:23;6.63;;;3.67;;
2598;SDS011;1309;48.810;8.954;2023-01-28T02:17:55;8.37;;;3.23;;
2598;SDS011;1309;48.810;8.954;2023-01-28T02:20:26;4.10;;;3.20;;
2598;SDS011;1309;48.810;8.954;2023-01-28T02:28:44;7.63;;;3.60;;
2598;SDS011;1309;48.810;8.954;2023-01-28T02:31:19;6.90;;;3.47;;
2598;SDS011;1309;48.810;8.954;2023-01-28T02:33:51;5.70;;;3.40;;
2598;SDS011;1309;48.810;8.954;2023-01-28T02:36:25;7.63;;;3.67;;
2598;SDS011;1309;48.810;8.954;2023-01-28T02:39:00;6.33;;;3.47;;
2598;SDS011;1309;48.810;8.954;2023-01-28T02:41:37;5.03;;;2.87;;
2598;SDS011;1309;48.810;8.954;2023-01-28T02:44:11;6.83;;;3.23;;
2598;SDS011;1309;48.810;8.954;2023-01-28T02:46:40;7.30;;;3.80;;
2598;SDS011;1309;48.810;8.954;2023-01-28T02:49:27;6.20;;;3.30;;
2598;SDS011;1309;48.810;8.954;2023-01-28T02:52:00;7.03;;;3.87;;
2598;SDS011;1309;48.810;8.954;2023-01-28T02:54:36;7.60;;;3.83;;
2598;SDS011;1309;48.810;8.954;2023-01-28T02:57:08;6.20;;;3.67;;
2598;SDS011;1309;48.810;8.954;2023-01-28T02:59:44;6.47;;;3.50;;
2598;SDS011;1309;48.810;8.954;2023-01-28T03:02:20;8.20;;;4.30;;
2598;SDS011;1309;48.810;8.954;2023-01-28T03:04:52;6.83;;;4.80;;
2598;SDS011;1309;48.810;8.954;2023-01-28T03:07:26;6.70;;;3.63;;
2598;SDS011;1309;48.810;8.954;2023-01-28T03:09:54;5.60;;;4.07;;
2598;SDS011;1309;48.810;8.954;2023-01-28T03:12:24;6.80;;;4.27;;
2598;SDS011;1309;48.810;8.954;2023-01-28T03:15:13;8.90;;;4.73;;
2598;SDS011;1309;48.810;8.954;2023-01-28T03:18:07;8.03;;;3.83;;
2598;SDS011;1309;48.810;8.954;2023-01-28T03:20:56;6.40;;;3.77;;
2598;SDS011;1309;48.810;8.954;2023-01-28T03:23:47;9.97;;;4.70;;
2598;SDS011;1309;48.810;8.954;2023-01-28T03:26:37;7.20;;;3.60;;
2598;SDS011;1309;48.810;8.954;2023-01-28T03:29:27;10.50;;;4.53;;
2598;SDS011;1309;48.810;8.954;2023-01-28T03:32:19;6.70;;;4.20;;
2598;SDS011;1309;48.810;8.954;2023-01-28T03:35:05;7.47;;;3.80;;
2598;SDS011;1309;48.810;8.954;2023-01-28T03:37:55;10.10;;;5.57;;
2598;SDS011;1309;48.810;8.954;2023-01-28T03:40:27;7.50;;;5.00;;
2598;SDS011;1309;48.810;8.954;2023-01-28T03:42:55;8.80;;;4.50;;
2598;SDS011;1309;48.810;8.954;2023-01-28T03:45:25;10.40;;;5.00;;
2598;SDS011;1309;48.810;8.954;2023-01-28T03:47:54;13.27;;;5.80;;
2598;SDS011;1309;48.810;8.954;2023-01-28T03:50:32;13.00;;;5.07;;
2598;SDS011;1309;48.810;8.954;2023-01-28T03:53:00;11.17;;;5.63;;
2598;SDS011;1309;48.810;8.954;2023-01-28T03:55:41;8.10;;;4.80;;
2598;SDS011;1309;48.810;8.954;2023-01-28T03:58:09;7.93;;;5.60;;
2598;SDS011;1309;48.810;8.954;2023-01-28T04:00:39;11.30;;;5.60;;
2598;SDS011;1309;48.810;8.954;2023-01-28T04:03:13;7.70;;;4.93;;
2598;SDS011;1309;48.810;8.954;2023-01-28T04:05:42;8.70;;;4.70;;
2598;SDS011;1309;48.810;8.954;2023-01-28T04:08:15;10.40;;;6.43;;
2598;SDS011;1309;48.810;8.954;2023-01-28T04:10:46;12.57;;;6.03;;
2598;SDS011;1309;48.810;8.954;2023-01-28T04:13:14;12.70;;;6.20;;
2598;SDS011;1309;48.810;8.954;2023-01-28T04:15:42;13.13;;;7.60;;
2598;SDS011;1309;48.810;8.954;2023-01-28T04:18:19;10.07;;;6.00;;
2598;SDS011;1309;48.810;8.954;2023-01-28T04:20:53;10.83;;;5.67;;
2598;SDS011;1309;48.810;8.954;2023-01-28T04:23:21;11.77;;;5.90;;
2598;SDS011;1309;48.810;8.954;2023-01-28T04:25:58;9.53;;;4.67;;
2598;SDS011;1309;48.810;8.954;2023-01-28T04:28:29;11.23;;;6.00;;
2598;SDS011;1309;48.810;8.954;2023-01-28T04:30:57;11.13;;;6.83;;
2598;SDS011;1309;48.810;8.954;2023-01-28T04:33:31;10.10;;;5.40;;
2598;SDS011;1309;48.810;8.954;2023-01-28T04:36:04;14.23;;;7.00;;
2598;SDS011;1309;48.810;8.954;2023-01-28T04:38:32;9.67;;;5.47;;
2598;SDS011;1309;48.810;8.954;2023-01-28T04:41:00;8.67;;;5.27;;
2598;SDS011;1309;48.810;8.954;2023-01-28T04:43:28;9.13;;;5.40;;
2598;SDS011;1309;48.810;8.954;2023-01-28T04:45:58;14.00;;;6.20;;
2598;SDS011;1309;48.810;8.954;2023-01-28T04:48:26;9.40;;;5.40;;
2598;SDS011;1309;48.810;8.954;2023-01-28T04:50:58;12.70;;;5.50;;
2598;SDS011;1309;48.810;8.954;2023-01-28T04:53:26;8.50;;;5.87;;
2598;SDS011;1309;48.810;8.954;2023-01-28T04:56:00;12.53;;;5.17;;
2598;SDS011;1309;48.810;8.954;2023-01-28T04:58:28;10.50;;;5.00;;
2598;SDS011;1309;48.810;8.954;2023-01-28T05:00:57;13.50;;;7.00;;
2598;SDS011;1309;48.810;8.954;2023-01-28T05:03:28;10.83;;;6.07;;
2598;SDS011;1309;48.810;8.954;2023-01-28T05:05:56;11.80;;;5.80;;
2598;SDS011;1309;48.810;8.954;2023-01-28T05:08:28;10.47;;;5.93;;
2598;SDS011;1309;48.810;8.954;2023-01-28T05:10:57;8.53;;;5.07;;
2598;SDS011;1309;48.810;8.954;2023-01-28T05:13:27;8.80;;;5.20;;
2598;SDS011;1309;48.810;8.954;2023-01-28T05:15:58;11.40;;;6.00;;
2598;SDS011;1309;48.810;8.954;2023-01-28T05:18:29;8.67;;;5.43;;
2598;SDS011;1309;48.810;8.954;2023-01-28T05:20:59;13.73;;;7.10;;
2598;SDS011;1309;48.810;8.954;2023-01-28T05:23:31;11.20;;;7.20;;
2598;SDS011;1309;48.810;8.954;2023-01-28T05:26:00;12.50;;;7.10;;
2598;SDS011;1309;48.810;8.954;2023-01-28T05:28:28;12.83;;;6.53;;
2598;SDS011;1309;48.810;8.954;2023-01-28T05:30:55;8.80;;;5.20;;
2598;SDS011;1309;48.810;8.954;2023-01-28T05:33:25;12.03;;;6.07;;
2598;SDS011;1309;48.810;8.954;2023-01-28T05:35:54;13.60;;;7.77;;
2598;SDS011;1309;48.810;8.954;2023-01-28T05:38:21;15.90;;;7.60;;
2598;SDS011;1309;48.810;8.954;2023-01-28T05:40:56;12.83;;;6.93;;
2598;SDS011;1309;48.810;8.954;2023-01-28T05:43:25;11.60;;;6.00;;
2598;SDS011;1309;48.810;8.954;2023-01-28T05:45:54;11.17;;;6.93;;
2598;SDS011;1309;48.810;8.954;2023-01-28T05:48:28;11.60;;;7.67;;
2598;SDS011;1309;48.810;8.954;2023-01-28T05:50:56;13.73;;;5.80;;
2598;SDS011;1309;48.810;8.954;2023-01-28T05:53:27;9.47;;;6.80;;
2598;SDS011;1309;48.810;8.954;2023-01-28T05:55:58;12.10;;;6.47;;
2598;SDS011;1309;48.810;8.954;2023-01-28T05:58:29;11.23;;;6.37;;
2598;SDS011;1309;48.810;8.954;2023-01-28T06:00:57;9.93;;;6.20;;
2598;SDS011;1309;48.810;8.954;2023-01-28T06:03:25;10.37;;;4.40;;
2598;SDS011;1309;48.810;8.954;2023-01-28T06:05:53;10.63;;;6.40;;
2598;SDS011;1309;48.810;8.954;2023-01-28T06:08:23;8.07;;;5.77;;
2598;SDS011;1309;48.810;8.954;2023-01-28T06:10:54;11.53;;;6.60;;
2598;SDS011;1309;48.810;8.954;2023-01-28T06:13:23;8.90;;;5.13;;
2598;SDS011;1309;48.810;8.954;2023-01-28T06:15:53;10.67;;;5.90;;
2598;SDS011;1309;48.810;8.954;2023-01-28T06:18:29;11.87;;;5.67;;
2598;SDS011;1309;48.810;8.954;2023-01-28T06:20:59;10.17;;;6.97;;
2598;SDS011;1309;48.810;8.954;2023-01-28T06:23:30;11.23;;;6.50;;
2598;SDS011;1309;48.810;8.954;2023-01-28T06:26:01;10.07;;;5.77;;
2598;SDS011;1309;48.810;8.954;2023-01-28T06:28:31;10.10;;;5.73;;
2598;SDS011;1309;48.810;8.954;2023-01-28T06:31:01;12.13;;;7.20;;
2598;SDS011;1309;48.810;8.954;2023-01-28T06:33:30;13.77;;;7.50;;
2598;SDS011;1309;48.810;8.954;2023-01-28T06:36:01;19.53;;;7.83;;
2598;SDS011;1309;48.810;8.954;2023-01-28T06:38:29;10.03;;;5.97;;
2598;SDS011;1309;48.810;8.954;2023-01-28T06:40:57;9.73;;;6.77;;
2598;SDS011;1309;48.810;8.954;2023-01-28T06:43:27;9.83;;;6.40;;
2598;SDS011;1309;48.810;8.954;2023-01-28T06:46:00;11.90;;;6.70;;
2598;SDS011;1309;48.810;8.954;2023-01-28T06:48:31;8.03;;;5.57;;
2598;SDS011;1309;48.810;8.954;2023-01-28T06:50:59;11.33;;;5.97;;
2598;SDS011;1309;48.810;8.954;2023-01-28T06:53:28;11.77;;;5.57;;
2598;SDS011;1309;48.810;8.954;2023-01-28T06:55:58;12.83;;;6.50;;
2598;SDS011;1309;48.810;8.954;2023-01-28T06:58:26;13.10;;;7.40;;
2598;SDS011;1309;48.810;8.954;2023-01-28T07:00:54;11.63;;;6.37;;
2598;SDS011;1309;48.810;8.954;2023-01-28T07:03:24;9.57;;;6.20;;
2598;SDS011;1309;48.810;8.954;2023-01-28T07:05:54;10.80;;;7.20;;
2598;SDS011;1309;48.810;8.954;2023-01-28T07:08:30;10.50;;;6.17;;
2598;SDS011;1309;48.810;8.954;2023-01-28T07:11:03;13.37;;;7.53;;
2598;SDS011;1309;48.810;8.954;2023-01-28T07:13:32;11.60;;;7.93;;
2598;SDS011;1309;48.810;8.954;2023-01-28T07:16:00;10.67;;;6.63;;
2598;SDS011;1309;48.810;8.954;2023-01-28T07:18:30;11.27;;;7.13;;
2598;SDS011;1309;48.810;8.954;2023-01-28T07:20:58;10.27;;;5.03;;
2598;SDS011;1309;48.810;8.954;2023-01-28T07:23:26;11.67;;;7.77;;
2598;SDS011;1309;48.810;8.954;2023-01-28T07:25:59;11.67;;;7.33;;
2598;SDS011;1309;48.810;8.954;2023-01-28T07:28:30;8.23;;;5.13;;
2598;SDS011;1309;48.810;8.954;2023-01-28T07:31:02;10.67;;;7.17;;
2598;SDS011;1309;48.810;8.954;2023-01-28T07:33:32;14.43;;;7.70;;
2598;SDS011;1309;48.810;8.954;2023-01-28T07:36:00;11.20;;;7.10;;
2598;SDS011;1309;48.810;8.954;2023-01-28T07:38:29;15.93;;;6.93;;
2598;SDS011;1309;48.810;8.954;2023-01-28T07:40:57;9.70;;;6.00;;
2598;SDS011;1309;48.810;8.954;2023-01-28T07:43:26;13.20;;;7.00;;
2598;SDS011;1309;48.810;8.954;2023-01-28T07:45:54;13.40;;;6.70;;
2598;SDS011;1309;48.810;8.954;2023-01-28T07:48:23;14.27;;;6.53;;
2598;SDS011;1309;48.810;8.954;2023-01-28T07:50:58;15.43;;;8.20;;
2598;SDS011;1309;48.810;8.954;2023-01-28T07:53:26;14.10;;;7.67;;
2598;SDS011;1309;48.810;8.954;2023-01-28T07:55:57;12.27;;;7.50;;
2598;SDS011;1309;48.810;8.954;2023-01-28T07:58:31;11.33;;;7.20;;
2598;SDS011;1309;48.810;8.954;2023-01-28T08:01:00;12.90;;;6.17;;
2598;SDS011;1309;48.810;8.954;2023-01-28T08:03:28;12.63;;;7.83;;
2598;SDS011;1309;48.810;8.954;2023-01-28T08:05:57;14.00;;;8.63;;
2598;SDS011;1309;48.810;8.954;2023-01-28T08:08:28;19.47;;;9.77;;
2598;SDS011;1309;48.810;8.954;2023-01-28T08:10:56;18.47;;;8.07;;
2598;SDS011;1309;48.810;8.954;2023-01-28T08:13:25;18.10;;;9.43;;
2598;SDS011;1309;48.810;8.954;2023-01-28T08:16:03;12.80;;;8.03;;
2598;SDS011;1309;48.810;8.954;2023-01-28T08:18:32;14.30;;;7.40;;
2598;SDS011;1309;48.810;8.954;2023-01-28T08:21:01;15.77;;;7.60;;
2598;SDS011;1309;48.810;8.954;2023-01-28T08:23:30;15.47;;;8.00;;
2598;SDS011;1309;48.810;8.954;2023-01-28T08:25:59;15.50;;;8.50;;
2598;SDS011;1309;48.810;8.954;2023-01-28T08:28:27;15.13;;;9.43;;
2598;SDS011;1309;48.810;8.954;2023-01-28T08:30:58;17.20;;;8.53;;
2598;SDS011;1309;48.810;8.954;2023-01-28T08:33:26;15.93;;;7.73;;
2598;SDS011;1309;48.810;8.954;2023-01-28T08:36:09;12.37;;;7.30;;
2598;SDS011;1309;48.810;8.954;2023-01-28T08:38:37;13.27;;;8.03;;
2598;SDS011;1309;48.810;8.954;2023-01-28T08:41:10;14.00;;;7.60;;
2598;SDS011;1309;48.810;8.954;2023-01-28T08:43:37;16.03;;;9.50;;
2598;SDS011;1309;48.810;8.954;2023-01-28T08:46:08;14.60;;;7.33;;
2598;SDS011;1309;48.810;8.954;2023-01-28T08:48:37;11.73;;;7.37;;
2598;SDS011;1309;48.810;8.954;2023-01-28T08:51:05;14.10;;;7.90;;
2598;SDS011;1309;48.810;8.954;2023-01-28T08:53:35;11.07;;;7.27;;
2598;SDS011;1309;48.810;8.954;2023-01-28T08:56:06;14.70;;;7.13;;
2598;SDS011;1309;48.810;8.954;2023-01-28T08:58:35;16.17;;;8.30;;
2598;SDS011;1309;48.810;8.954;2023-01-28T09:01:03;12.80;;;7.70;;
2598;SDS011;1309;48.810;8.954;2023-01-28T09:03:34;17.77;;;8.00;;
2598;SDS011;1309;48.810;8.954;2023-01-28T09:06:05;13.07;;;7.40;;
2598;SDS011;1309;48.810;8.954;2023-01-28T09:08:38;19.23;;;10.57;;
2598;SDS011;1309;48.810;8.954;2023-01-28T09:11:10;16.13;;;8.10;;
2598;SDS011;1309;48.810;8.954;2023-01-28T09:13:38;11.63;;;7.20;;
2598;SDS011;1309;48.810;8.954;2023-01-28T09:16:09;15.50;;;7.40;;
2598;SDS011;1309;48.810;8.954;2023-01-28T09:18:37;27.90;;;9.57;;
2598;SDS011;1309;48.810;8.954;2023-01-28T09:21:08;14.50;;;7.93;;
2598;SDS011;1309;48.810;8.954;2023-01-28T09:23:36;15.60;;;7.80;;
2598;SDS011;1309;48.810;8.954;2023-01-28T09:26:08;16.63;;;8.10;;
2598;SDS011;1309;48.810;8.954;2023-01-28T09:28:36;14.90;;;7.60;;
2598;SDS011;1309;48.810;8.954;2023-01-28T09:31:10;15.70;;;8.73;;
2598;SDS011;1309;48.810;8.954;2023-01-28T09:33:39;24.30;;;8.80;;
2598;SDS011;1309;48.810;8.954;2023-01-28T09:36:20;23.37;;;9.37;;
2598;SDS011;1309;48.810;8.954;2023-01-28T09:38:50;17.67;;;8.80;;
2598;SDS011;1309;48.810;8.954;2023-01-28T09:41:23;14.87;;;8.00;;
2598;SDS011;1309;48.810;8.954;2023-01-28T09:44:01;18.03;;;9.47;;
2598;SDS011;1309;48.810;8.954;2023-01-28T09:46:32;21.53;;;10.20;;
2598;SDS011;1309;48.810;8.954;2023-01-28T09:49:05;16.37;;;9.63;;
2598;SDS011;1309;48.810;8.954;2023-01-28T09:51:54;11.27;;;7.60;;
2598;SDS011;1309;48.810;8.954;2023-01-28T09:54:28;14.03;;;7.00;;
2598;SDS011;1309;48.810;8.954;2023-01-28T09:57:01;15.17;;;8.67;;
2598;SDS011;1309;48.810;8.954;2023-01-28T09:59:32;16.27;;;8.67;;
2598;SDS011;1309;48.810;8.954;2023-01-28T10:02:03;15.30;;;8.23;;
2598;SDS011;1309;48.810;8.954;2023-01-28T10:04:52;12.37;;;7.87;;
2598;SDS011;1309;48.810;8.954;2023-01-28T10:07:37;14.50;;;9.07;;
2598;SDS011;1309;48.810;8.954;2023-01-28T10:10:14;17.43;;;7.50;;
2598;SDS011;1309;48.810;8.954;2023-01-28T10:13:01;16.80;;;8.50;;
2598;SDS011;1309;48.810;8.954;2023-01-28T10:15:47;19.30;;;9.83;;
2598;SDS011;1309;48.810;8.954;2023-01-28T10:18:20;15.60;;;8.67;;
2598;SDS011;1309;48.810;8.954;2023-01-28T10:20:56;18.33;;;8.50;;
2598;SDS011;1309;48.810;8.954;2023-01-28T10:23:30;18.97;;;8.70;;
2598;SDS011;1309;48.810;8.954;2023-01-28T10:26:08;17.80;;;10.10;;
2598;SDS011;1309;48.810;8.954;2023-01-28T10:28:47;19.37;;;9.57;;
2598;SDS011;1309;48.810;8.954;2023-01-28T10:31:20;14.00;;;8.33;;
2598;SDS011;1309;48.810;8.954;2023-01-28T10:33:49;21.93;;;10.33;;
2598;SDS011;1309;48.810;8.954;2023-01-28T10:36:19;15.63;;;8.63;;
2598;SDS011;1309;48.810;8.954;2023-01-28T10:38:52;17.03;;;10.33;;
2598;SDS011;1309;48.810;8.954;2023-01-28T10:41:24;15.93;;;10.40;;
2598;SDS011;1309;48.810;8.954;2023-01-28T10:43:55;13.93;;;8.40;;
2598;SDS011;1309;48.810;8.954;2023-01-28T10:46:25;20.17;;;10.10;;
2598;SDS011;1309;48.810;8.954;2023-01-28T10:48:57;15.97;;;8.87;;
2598;SDS011;1309;48.810;8.954;2023-01-28T10:51:30;20.03;;;8.90;;
2598;SDS011;1309;48.810;8.954;2023-01-28T10:53:59;19.57;;;9.13;;
2598;SDS011;1309;48.810;8.954;2023-01-28T10:56:30;19.47;;;10.97;;
2598;SDS011;1309;48.810;8.954;2023-01-28T10:58:59;11.80;;;7.80;;
2598;SDS011;1309;48.810;8.954;2023-01-28T11:01:41;14.60;;;9.70;;
2598;SDS011;1309;48.810;8.954;2023-01-28T11:04:14;16.20;;;9.77;;
2598;SDS011;1309;48.810;8.954;2023-01-28T11:06:58;18.07;;;7.70;;
2598;SDS011;1309;48.810;8.954;2023-01-28T11:09:30;19.90;;;8.57;;
2598;SDS011;1309;48.810;8.954;2023-01-28T11:12:18;16.97;;;8.93;;
2598;SDS011;1309;48.810;8.954;2023-01-28T11:14:50;14.70;;;8.17;;
2598;SDS011;1309;48.810;8.954;2023-01-28T11:17:28;19.67;;;9.50;;
2598;SDS011;1309;48.810;8.954;2023-01-28T11:20:08;16.30;;;9.63;;
2598;SDS011;1309;48.810;8.954;2023-01-28T11:22:40;20.30;;;9.13;;
2598;SDS011;1309;48.810;8.954;2023-01-28T11:25:16;12.20;;;8.50;;
2598;SDS011;1309;48.810;8.954;2023-01-28T11:27:58;19.87;;;8.47;;
2598;SDS011;1309;48.810;8.954;2023-01-28T11:30:28;21.47;;;8.27;;
2598;SDS011;1309;48.810;8.954;2023-01-28T11:33:01;15.93;;;8.10;;
2598;SDS011;1309;48.810;8.954;2023-01-28T11:35:32;12.90;;;7.40;;
2598;SDS011;1309;48.810;8.954;2023-01-28T11:38:10;17.83;;;9.00;;
2598;SDS011;1309;48.810;8.954;2023-01-28T11:40:48;12.43;;;7.50;;
2598;SDS011;1309;48.810;8.954;2023-01-28T11:43:19;12.17;;;6.53;;
2598;SDS011;1309;48.810;8.954;2023-01-28T11:45:51;19.57;;;8.67;;
2598;SDS011;1309;48.810;8.954;2023-01-28T11:48:27;18.93;;;8.07;;
2598;SDS011;1309;48.810;8.954;2023-01-28T11:51:02;14.87;;;9.47;;
2598;SDS011;1309;48.810;8.954;2023-01-28T11:53:36;17.37;;;9.00;;
2598;SDS011;1309;48.810;8.954;2023-01-28T11:56:18;16.67;;;9.03;;
2598;SDS011;1309;48.810;8.954;2023-01-28T11:59:04;16.23;;;8.57;;
2598;SDS011;1309;48.810;8.954;2023-01-28T12:01:48;15.03;;;8.83;;
2598;SDS011;1309;48.810;8.954;2023-01-28T12:04:21;15.80;;;7.20;;
2598;SDS011;1309;48.810;8.954;2023-01-28T12:07:04;19.07;;;7.70;;
2598;SDS011;1309;48.810;8.954;2023-01-28T12:09:42;15.70;;;8.20;;
2598;SDS011;1309;48.810;8.954;2023-01-28T12:12:21;18.10;;;8.97;;
2598;SDS011;1309;48.810;8.954;2023-01-28T12:15:07;12.40;;;7.40;;
2598;SDS011;1309;48.810;8.954;2023-01-28T12:18:09;14.47;;;7.70;;
2598;SDS011;1309;48.810;8.954;2023-01-28T12:20:51;14.83;;;8.23;;
2598;SDS011;1309;48.810;8.954;2023-01-28T12:23:28;15.30;;;8.77;;
2598;SDS011;1309;48.810;8.954;2023-01-28T12:26:20;12.57;;;7.60;;
2598;SDS011;1309;48.810;8.954;2023-01-28T12:28:56;17.20;;;8.97;;
2598;SDS011;1309;48.810;8.954;2023-01-28T12:34:49;12.10;;;7.70;;
2598;SDS011;1309;48.810;8.954;2023-01-28T12:37:26;15.80;;;8.80;;
2598;SDS011;1309;48.810;8.954;2023-01-28T12:40:05;14.93;;;6.83;;
2598;SDS011;1309;48.810;8.954;2023-01-28T12:42:44;11.77;;;6.37;;
2598;SDS011;1309;48.810;8.954;2023-01-28T12:45:18;9.23;;;6.67;;
2598;SDS011;1309;48.810;8.954;2023-01-28T12:47:52;12.30;;;5.70;;
2598;SDS011;1309;48.810;8.954;2023-01-28T12:50:30;10.00;;;6.13;;
2598;SDS011;1309;48.810;8.954;2023-01-28T12:53:04;13.70;;;6.60;;
2598;SDS011;1309;48.810;8.954;2023-01-28T12:55:39;10.27;;;5.40;;
2598;SDS011;1309;48.810;8.954;2023-01-28T12:58:12;12.30;;;5.73;;
2598;SDS011;1309;48.810;8.954;2023-01-28T13:00:47;8.63;;;5.03;;
2598;SDS011;1309;48.810;8.954;2023-01-28T13:03:23;12.23;;;6.23;;
2598;SDS011;1309;48.810;8.954;2023-01-28T13:05:54;9.00;;;5.90;;
2598;SDS011;1309;48.810;8.954;2023-01-28T13:08:28;8.23;;;4.70;;
2598;SDS011;1309;48.810;8.954;2023-01-28T13:10:58;10.53;;;5.80;;
2598;SDS011;1309;48.810;8.954;2023-01-28T13:13:29;10.13;;;5.63;;
2598;SDS011;1309;48.810;8.954;2023-01-28T13:15:58;8.47;;;4.77;;
2598;SDS011;1309;48.810;8.954;2023-01-28T13:18:32;11.17;;;6.73;;
2598;SDS011;1309;48.810;8.954;2023-01-28T13:21:02;12.20;;;7.00;;
2598;SDS011;1309;48.810;8.954;2023-01-28T13:23:36;10.00;;;5.80;;
2598;SDS011;1309;48.810;8.954;2023-01-28T13:26:28;11.40;;;6.43;;
2598;SDS011;1309;48.810;8.954;2023-01-28T13:29:14;7.50;;;5.40;;
2598;SDS011;1309;48.810;8.954;2023-01-28T13:31:47;9.90;;;5.70;;
2598;SDS011;1309;48.810;8.954;2023-01-28T13:34:30;7.50;;;5.40;;
2598;SDS011;1309;48.810;8.954;2023-01-28T13:37:12;11.17;;;6.10;;
2598;SDS011;1309;48.810;8.954;2023-01-28T13:39:45;14.67;;;6.30;;
2598;SDS011;1309;48.810;8.954;2023-01-28T13:42:22;12.40;;;6.20;;
2598;SDS011;1309;48.810;8.954;2023-01-28T13:44:54;14.47;;;7.17;;
2598;SDS011;1309;48.810;8.954;2023-01-28T13:47:24;13.67;;;6.40;;
2598;SDS011;1309;48.810;8.954;2023-01-28T13:49:58;12.43;;;6.50;;
2598;SDS011;1309;48.810;8.954;2023-01-28T13:52:30;18.60;;;8.80;;
2598;SDS011;1309;48.810;8.954;2023-01-28T13:55:02;12.00;;;6.90;;
2598;SDS011;1309;48.810;8.954;2023-01-28T14:00:40;15.10;;;7.77;;
2598;SDS011;1309;48.810;8.954;2023-01-28T14:06:46;15.60;;;8.50;;
2598;SDS011;1309;48.810;8.954;2023-01-28T14:09:35;14.33;;;7.50;;
2598;SDS011;1309;48.810;8.954;2023-01-28T14:15:24;12.97;;;7.20;;
2598;SDS011;1309;48.810;8.954;2023-01-28T14:18:13;9.07;;;6.40;;
2598;SDS011;1309;48.810;8.954;2023-01-28T14:20:48;13.20;;;7.67;;
2598;SDS011;1309;48.810;8.954;2023-01-28T14:23:19;12.53;;;7.70;;
2598;SDS011;1309;48.810;8.954;2023-01-28T14:25:51;12.60;;;6.83;;
2598;SDS011;1309;48.810;8.954;2023-01-28T14:28:33;13.47;;;7.50;;
2598;SDS011;1309;48.810;8.954;2023-01-28T14:31:07;14.03;;;8.03;;
2598;SDS011;1309;48.810;8.954;2023-01-28T14:33:37;11.80;;;6.37;;
2598;SDS011;1309;48.810;8.954;2023-01-28T14:36:08;14.93;;;6.70;;
2598;SDS011;1309;48.810;8.954;2023-01-28T14:38:40;13.23;;;7.90;;
2598;SDS011;1309;48.810;8.954;2023-01-28T14:41:10;13.33;;;6.17;;
2598;SDS011;1309;48.810;8.954;2023-01-28T14:43:49;11.70;;;6.33;;
2598;SDS011;1309;48.810;8.954;2023-01-28T14:46:21;9.73;;;5.87;;
2598;SDS011;1309;48.810;8.954;2023-01-28T14:48:59;10.93;;;6.37;;
2598;SDS011;1309;48.810;8.954;2023-01-28T14:51:43;10.23;;;6.10;;
2598;SDS011;1309;48.810;8.954;2023-01-28T14:54:25;17.30;;;7.00;;
2598;SDS011;1309;48.810;8.954;2023-01-28T14:59:49;14.40;;;7.10;;
2598;SDS011;1309;48.810;8.954;2023-01-28T15:02:26;9.17;;;5.97;;
2598;SDS011;1309;48.810;8.954;2023-01-28T15:05:06;14.47;;;7.00;;
2598;SDS011;1309;48.810;8.954;2023-01-28T15:07:38;12.87;;;6.37;;
2598;SDS011;1309;48.810;8.954;2023-01-28T15:10:16;11.17;;;6.40;;
2598;SDS011;1309;48.810;8.954;2023-01-28T15:12:51;14.03;;;6.30;;
2598;SDS011;1309;48.810;8.954;2023-01-28T15:15:31;9.30;;;5.67;;
2598;SDS011;1309;48.810;8.954;2023-01-28T15:18:06;12.67;;;7.00;;
2598;SDS011;1309;48.810;8.954;2023-01-28T15:20:42;7.80;;;4.90;;
2598;SDS011;1309;48.810;8.954;2023-01-28T15:23:11;10.80;;;5.30;;
2598;SDS011;1309;48.810;8.954;2023-01-28T15:25:47;8.70;;;5.40;;
2598;SDS011;1309;48.810;8.954;2023-01-28T15:28:16;9.03;;;4.37;;
2598;SDS011;1309;48.810;8.954;2023-01-28T15:30:53;13.70;;;5.57;;
2598;SDS011;1309;48.810;8.954;2023-01-28T15:33:22;9.07;;;5.70;;
2598;SDS011;1309;48.810;8.954;2023-01-28T15:35:51;7.67;;;5.40;;
2598;SDS011;1309;48.810;8.954;2023-01-28T15:38:20;8.17;;;5.90;;
2598;SDS011;1309;48.810;8.954;2023-01-28T15:40:50;8.37;;;4.47;;
2598;SDS011;1309;48.810;8.954;2023-01-28T15:43:25;9.60;;;4.43;;
2598;SDS011;1309;48.810;8.954;2023-01-28T15:45:57;9.30;;;4.80;;
2598;SDS011;1309;48.810;8.954;2023-01-28T15:48:26;10.73;;;4.73;;
2598;SDS011;1309;48.810;8.954;2023-01-28T15:51:05;6.00;;;3.90;;
2598;SDS011;1309;48.810;8.954;2023-01-28T15:53:42;9.20;;;4.20;;
2598;SDS011;1309;48.810;8.954;2023-01-28T15:56:14;10.63;;;5.20;;
2598;SDS011;1309;48.810;8.954;2023-01-28T15:58:42;8.60;;;3.27;;
2598;SDS011;1309;48.810;8.954;2023-01-28T16:01:14;13.50;;;5.47;;
2598;SDS011;1309;48.810;8.954;2023-01-28T16:03:44;9.07;;;5.57;;
2598;SDS011;1309;48.810;8.954;2023-01-28T16:06:14;10.53;;;5.10;;